»·PEaware :: SWA1064 KSFO-KLAX

SWA1064 :: KSFO-KLAX

FLIGHT INFORMATION

Flight Status: Arrived
Operator:
Southwest Airlines
More flights by this operator :: More flights under this callsign
Pilot: Hassan P. (16390)
Aircraft: BOEING 737-800
(B738)
More flights by this aircraft type
Origin: KSFO San Francisco Intl
United States
Destination: KLAX Los Angeles Intl
United States
More flights between these airports :: More routes between these airports
Route: SSTIK3 EBAYE BURGL IRNMN1
File this flight plan on PilotEdge
Remarks: PBN / A1B1C1D1S1S2 DOF / 180612 REG / N441SB EET / KZLA0026 OPR / SWA PER / C RMK / TCAS SIMBRIEF
Altitude:
(Current/Filed)
35,000ft
Speed:
(Current/Filed)
449kts
Departed: 12-Jun-18 10:32 AM
Arrived: 12-Jun-18 11:32 AM
Distance/Time
Traveled:
293nm/1:00
Distance/Time
To Go:
Arrived

Flight Plot

Page will automatically refresh every two minutes.

Flight plan parsing failed; only flown route is shown


Map Options




Map Legend


Flown Route
Filed Route
Departure Airport
Arrival Airport
Navaid (VOR, NDB)
Fix

Horizontal Profiles

Position Reports

Time Latitude Longitude Heading Altitude Ground
Speed
12-Jun-18 09:53 37.612829 -122.383164 296 19ft 0kts
12-Jun-18 09:54 37.612829 -122.383164 296 19ft 0kts
12-Jun-18 09:55 37.612829 -122.383164 296 19ft 0kts
12-Jun-18 09:56 37.612829 -122.383164 296 19ft 0kts
12-Jun-18 10:04 37.612829 -122.383164 296 19ft 0kts
12-Jun-18 10:05 37.612829 -122.383164 296 19ft 0kts
12-Jun-18 10:06 37.612829 -122.383164 296 19ft 0kts
12-Jun-18 10:07 37.612829 -122.383164 296 19ft 0kts
12-Jun-18 10:08 37.612829 -122.383164 296 19ft 0kts
12-Jun-18 10:09 37.612829 -122.383164 296 19ft 0kts
12-Jun-18 10:10 37.612829 -122.383164 296 19ft 0kts
12-Jun-18 10:11 37.612829 -122.383164 296 19ft 0kts
12-Jun-18 10:12 37.612829 -122.383164 296 19ft 0kts
12-Jun-18 10:13 37.612829 -122.383164 296 19ft 0kts
12-Jun-18 10:14 37.612829 -122.383164 296 19ft 0kts
12-Jun-18 10:15 37.612829 -122.383164 296 19ft 0kts
12-Jun-18 10:16 37.612829 -122.383164 296 19ft 0kts
12-Jun-18 10:17 37.612829 -122.383164 296 19ft 0kts
12-Jun-18 10:18 37.612829 -122.383164 296 19ft 0kts
12-Jun-18 10:19 37.612778 -122.383036 296 19ft 0kts
12-Jun-18 10:20 37.612778 -122.383036 296 19ft 0kts
12-Jun-18 10:21 37.612569 -122.382501 296 19ft 0kts
12-Jun-18 10:22 37.612569 -122.382501 296 19ft 0kts
12-Jun-18 10:23 37.612569 -122.382501 296 19ft 0kts
12-Jun-18 10:24 37.612544 -122.382626 207 19ft 1kts
12-Jun-18 10:25 37.610734 -122.383539 209 19ft 9kts
12-Jun-18 10:26 37.609274 -122.383806 123 19ft 3kts
12-Jun-18 10:27 37.609211 -122.383675 120 19ft 0kts
12-Jun-18 10:28 37.609211 -122.383675 120 19ft 0kts
12-Jun-18 10:29 37.609182 -122.383615 121 19ft 0kts
12-Jun-18 10:30 37.609102 -122.383452 122 19ft 6kts
12-Jun-18 10:31 37.609059 -122.382193 34 19ft 8kts
12-Jun-18 10:32 37.637260 -122.364663 27 975ft 175kts
12-Jun-18 10:33 37.689993 -122.369817 308 2983ft 260kts
12-Jun-18 10:34 37.669937 -122.449367 209 4858ft 274kts
12-Jun-18 10:35 37.594523 -122.463965 185 6682ft 280kts
12-Jun-18 10:36 37.516749 -122.471833 185 8514ft 284kts
12-Jun-18 10:37 37.450230 -122.424473 133 10441ft 294kts
12-Jun-18 10:38 37.398015 -122.352243 133 12236ft 300kts
12-Jun-18 10:39 37.340617 -122.273670 133 14157ft 326kts
12-Jun-18 10:40 37.275702 -122.185407 133 16073ft 360kts
12-Jun-18 10:41 37.207214 -122.092679 134 17868ft 370kts
12-Jun-18 10:42 37.136587 -121.997418 134 19665ft 381kts
12-Jun-18 10:43 37.063436 -121.899125 133 21472ft 394kts
12-Jun-18 10:44 36.988229 -121.798416 133 23270ft 405kts
12-Jun-18 10:45 36.910334 -121.694426 133 25087ft 416kts
12-Jun-18 10:46 36.831247 -121.589188 133 26879ft 425kts
12-Jun-18 10:47 36.750100 -121.481576 133 28678ft 429kts
12-Jun-18 10:48 36.669970 -121.375668 134 30439ft 429kts
12-Jun-18 10:49 36.586332 -121.265505 134 31687ft 439kts
12-Jun-18 10:50 36.501386 -121.154013 134 32706ft 451kts
12-Jun-18 10:51 36.414994 -121.040074 132 33647ft 461kts
12-Jun-18 10:52 36.331027 -120.919092 131 34446ft 462kts
12-Jun-18 10:53 36.250788 -120.803845 131 34937ft 461kts
12-Jun-18 10:54 36.167483 -120.684711 132 34945ft 461kts
12-Jun-18 10:55 36.084112 -120.565961 132 34944ft 460kts
12-Jun-18 10:56 36.000156 -120.446835 132 34943ft 460kts
12-Jun-18 10:57 35.916657 -120.328799 132 34940ft 460kts
12-Jun-18 10:58 35.825524 -120.225964 149 34948ft 458kts
12-Jun-18 10:59 35.717320 -120.144783 149 34944ft 457kts
12-Jun-18 11:00 35.608902 -120.063443 149 34945ft 457kts
12-Jun-18 11:01 35.501177 -119.982494 149 34944ft 457kts
12-Jun-18 11:02 35.392860 -119.901292 149 34925ft 457kts
12-Jun-18 11:03 35.287902 -119.822680 148 34920ft 458kts
12-Jun-18 11:04 35.187317 -119.730022 143 34204ft 460kts
12-Jun-18 11:05 35.087008 -119.636397 143 32176ft 447kts
12-Jun-18 11:06 34.989802 -119.545975 143 30172ft 435kts
12-Jun-18 11:07 34.895673 -119.459012 143 28164ft 421kts
12-Jun-18 11:08 34.804911 -119.377713 143 26206ft 409kts
12-Jun-18 11:09 34.716571 -119.299236 144 24245ft 396kts
12-Jun-18 11:10 34.630517 -119.224150 145 22284ft 384kts
12-Jun-18 11:11 34.545690 -119.150801 144 20110ft 372kts
12-Jun-18 11:12 34.464533 -119.078981 144 17832ft 360kts
12-Jun-18 11:13 34.385320 -119.009777 145 15542ft 348kts
12-Jun-18 11:14 34.309115 -118.942763 143 13254ft 336kts
12-Jun-18 11:15 34.238956 -118.879032 143 11968ft 306kts
12-Jun-18 11:16 34.175922 -118.821120 143 12002ft 294kts
12-Jun-18 11:17 34.121491 -118.765189 138 10928ft 275kts
12-Jun-18 11:18 34.066294 -118.704847 138 9662ft 272kts
12-Jun-18 11:19 34.024019 -118.635241 99 8603ft 275kts
12-Jun-18 11:20 34.016638 -118.546486 97 7791ft 261kts
12-Jun-18 11:21 34.009895 -118.468435 97 7011ft 239kts
12-Jun-18 11:22 34.018776 -118.390286 76 6479ft 239kts
12-Jun-18 11:23 34.029871 -118.316974 82 5088ft 232kts
12-Jun-18 11:24 34.035311 -118.246831 86 4002ft 217kts
12-Jun-18 11:25 34.038574 -118.174948 98 3987ft 218kts
12-Jun-18 11:26 33.995750 -118.143571 201 4003ft 215kts
12-Jun-18 11:27 33.972941 -118.186338 260 3949ft 217kts
12-Jun-18 11:28 33.965543 -118.242954 261 2943ft 208kts
12-Jun-18 11:29 33.959856 -118.302464 265 1806ft 173kts
12-Jun-18 11:30 33.955357 -118.352291 262 971ft 162kts
12-Jun-18 11:31 33.951146 -118.391675 264 304ft 147kts
12-Jun-18 11:32 33.947532 -118.422261 220 110ft 7kts
12-Jun-18 11:33 33.946984 -118.421665 88 110ft 11kts
12-Jun-18 11:34 33.947337 -118.418149 83 110ft 21kts
12-Jun-18 11:35 33.947768 -118.414117 73 110ft 14kts
12-Jun-18 11:36 33.948201 -118.410610 83 110ft 16kts
12-Jun-18 11:37 33.948651 -118.406018 83 110ft 20kts
12-Jun-18 11:38 33.949025 -118.401190 111 110ft 9kts
12-Jun-18 11:39 33.948180 -118.400415 211 110ft 3kts
12-Jun-18 11:40 33.947881 -118.400710 224 110ft 0kts
12-Jun-18 11:41 33.947881 -118.400710 224 110ft 0kts
12-Jun-18 11:42 33.947881 -118.400710 224 110ft 0kts
12-Jun-18 11:43 33.947881 -118.400710 224 110ft 0kts
12-Jun-18 11:44 33.947881 -118.400710 224 110ft 0kts
12-Jun-18 11:45 33.947881 -118.400710 224 110ft 0kts

Navigation Log

Ident Type
Flight plan parsing failed, navigation log unavailable